Time;durP1;ratioP1;P1;durP2;ratioP2;P2;SDS_P1;SDS_P2;PMS_P1;PMS_P2;Temp;Humidity;BMP_temperature;BMP_pressure;BME280_temperature;BME280_humidity;BME280_pressure;Samples;Min_cycle;Max_cycle;Signal;HPM_P1;HPM_P2
2021/07/28 00:01:22;;;;;;;;;;;;;;;22.73;58.83;100946.94;5117254;28;19966;-72
2021/07/28 00:03:48;;;;;;;;;;;;;;;22.74;58.82;100945.19;5117124;28;20018;-73
2021/07/28 00:06:21;;;;;;;8.05;7.35;;;;;;;22.73;58.99;100932.91;5098698;28;19915;-73
2021/07/28 00:08:47;;;;;;;9.35;6.85;;;;;;;22.73;58.84;100938.16;5116923;28;20054;-73
2021/07/28 00:11:12;;;;;;;;;;;;;;;22.72;58.96;100939.94;5116981;28;20102;-73
2021/07/28 00:13:38;;;;;;;6.45;5.65;;;;;;;22.71;59.02;100926.81;5098739;28;19996;-73
2021/07/28 00:16:09;;;;;;;7.63;6.82;;;;;;;22.69;58.80;100923.34;5098279;28;20038;-72
2021/07/28 00:23:53;;;;;;;6.95;6.22;;;;;;;22.69;58.84;100915.44;5116776;28;20064;-72
2021/07/28 00:26:18;;;;;;;;;;;;;;;22.70;58.86;100912.78;5098427;28;20028;-73
2021/07/28 00:28:43;;;;;;;7.67;5.27;;;;;;;22.70;58.96;100918.03;5098016;28;19915;-72
2021/07/28 00:31:08;;;;;;;6.90;6.30;;;;;;;22.70;58.76;100911.91;5081378;28;20312;-73
2021/07/28 00:33:34;;;;;;;7.70;6.90;;;;;;;22.68;58.78;100914.56;5081242;28;20032;-73
2021/07/28 00:36:00;;;;;;;7.72;6.60;;;;;;;22.68;59.03;100906.66;5081579;28;19923;-72
2021/07/28 00:38:25;;;;;;;;;;;;;;;22.69;58.80;100900.50;5116463;28;20454;-73
2021/07/28 00:40:51;;;;;;;6.97;6.25;;;;;;;22.67;58.67;100901.41;5098025;28;19922;-73
2021/07/28 00:43:16;;;;;;;7.97;5.82;;;;;;;22.66;58.94;100902.31;5098006;28;20179;-73
2021/07/28 00:45:43;;;;;;;7.10;6.40;;;;;;;22.66;58.70;100889.13;5117523;28;20034;-73
2021/07/28 00:48:09;;;;;;;;;;;;;;;22.69;58.81;100889.94;5117695;28;20044;-73
2021/07/28 00:50:39;;;;;;;6.68;5.97;;;;;;;22.65;58.63;100884.75;5099647;28;19916;-74
2021/07/28 00:53:06;;;;;;;8.05;6.75;;;;;;;22.69;58.66;100889.06;5099774;28;20028;-73
2021/07/28 00:55:32;;;;;;;7.43;6.18;;;;;;;22.66;58.71;100878.59;5099821;28;20481;-73
2021/07/28 00:58:00;;;;;;;7.72;5.97;;;;;;;22.68;58.71;100888.19;5118478;28;20074;-73
2021/07/28 01:00:29;;;;;;;8.00;6.45;;;;;;;22.64;58.77;100883.88;5100109;28;20039;-73
2021/07/28 01:02:55;;;;;;;7.28;6.32;;;;;;;22.63;58.53;100876.88;5081258;28;20043;-73
2021/07/28 01:05:21;;;;;;;8.50;6.32;;;;;;;22.65;58.71;100884.75;5116654;28;20035;-72
2021/07/28 01:07:46;;;;;;;7.32;5.72;;;;;;;22.65;58.60;100883.00;5082055;28;20047;-71
2021/07/28 01:10:12;;;;;;;6.47;5.88;;;;;;;22.66;58.50;100889.13;5097582;28;20063;-71
2021/07/28 01:12:44;;;;;;;6.32;5.72;;;;;;;22.67;58.57;100894.38;5097252;28;20107;-71
2021/07/28 01:15:10;;;;;;;6.82;6.13;;;;;;;22.65;58.64;100890.91;5098176;28;20100;-71
2021/07/28 01:17:36;;;;;;;8.73;6.07;;;;;;;22.64;58.64;100875.09;5080443;28;20036;-71
2021/07/28 01:20:06;;;;;;;7.18;6.18;;;;;;;22.65;58.41;100874.22;5080244;28;20024;-71
2021/07/28 01:22:32;;;;;;;6.82;6.07;;;;;;;22.67;58.60;100877.69;5097082;28;20530;-71
2021/07/28 01:24:58;;;;;;;7.75;5.38;;;;;;;22.66;58.55;100875.94;5097229;28;20300;-73
2021/07/28 01:27:24;;;;;;;7.68;6.30;;;;;;;22.67;58.44;100882.97;5079922;28;20024;-71
2021/07/28 01:29:50;;;;;;;;;;;;;;;22.66;58.38;100874.19;5097356;28;20027;-71
2021/07/28 01:32:15;;;;;;;7.50;6.65;;;;;;;22.66;58.48;100878.59;5115201;28;19918;-70
2021/07/28 01:34:41;;;;;;;7.82;6.50;;;;;;;22.63;58.45;100857.56;5079764;28;20067;-72
2021/07/28 01:37:07;;;;;;;;;;;;;;;22.65;58.33;100866.31;5097318;28;20020;-73
2021/07/28 01:39:34;;;;;;;8.37;5.73;;;;;;;22.66;58.53;100868.91;5096771;28;19966;-73
2021/07/28 01:42:00;;;;;;;7.78;6.65;;;;;;;22.60;58.33;100852.34;5114767;28;20038;-71
2021/07/28 01:44:26;;;;;;;6.65;5.80;;;;;;;22.64;58.30;100864.56;5114740;28;20020;-71
2021/07/28 01:46:51;;;;;;;10.45;6.75;;;;;;;22.66;58.34;100861.00;5079720;28;20053;-71
2021/07/28 01:49:16;;;;;;;6.82;6.13;;;;;;;22.65;58.11;100864.53;5079188;28;20043;-71
2021/07/28 01:51:42;;;;;;;5.80;5.07;;;;;;;22.65;58.24;100861.03;5096570;28;20047;-71
2021/07/28 01:54:09;;;;;;;7.13;6.43;;;;;;;22.62;58.20;100854.06;5079506;28;20038;-71
2021/07/28 01:56:42;;;;;;;7.10;5.90;;;;;;;22.63;58.61;100857.56;5096302;28;20054;-71
2021/07/28 01:59:07;;;;;;;8.35;6.38;;;;;;;22.64;58.23;100854.88;5095832;28;20070;-70
2021/07/28 02:01:33;;;;;;;6.78;5.82;;;;;;;22.62;58.40;100858.47;5114559;28;20044;-71
2021/07/28 02:03:58;;;;;;;7.35;6.22;;;;;;;22.61;58.48;100854.94;5062811;28;20051;-71
2021/07/28 02:06:23;;;;;;;6.85;6.00;;;;;;;22.59;58.13;100853.28;5096425;28;20495;-71
2021/07/28 02:08:49;;;;;;;6.85;5.85;;;;;;;22.64;58.19;100856.66;5079224;28;20028;-71
2021/07/28 02:11:14;;;;;;;7.45;6.55;;;;;;;22.63;58.01;100863.69;5096001;28;20032;-71
2021/07/28 02:13:40;;;;;;;7.03;6.13;;;;;;;22.60;58.23;100852.34;5096179;28;20355;-72
2021/07/28 02:16:05;;;;;;;;;;;;;;;22.63;58.17;100858.44;5079308;28;20065;-71
2021/07/28 02:18:30;;;;;;;10.35;7.85;;;;;;;22.63;58.12;100857.56;5096099;28;19937;-71
2021/07/28 02:20:57;;;;;;;7.45;6.30;;;;;;;22.60;58.20;100845.31;5114328;28;20036;-71
2021/07/28 02:23:23;;;;;;;8.68;6.60;;;;;;;22.60;58.15;100849.72;5114288;28;20024;-71
2021/07/28 02:25:48;;;;;;;7.38;5.78;;;;;;;22.59;58.22;100842.72;5079038;28;20028;-70
2021/07/28 02:28:13;;;;;;;;;;;;;;;22.62;58.15;100850.56;5096099;28;20115;-71
2021/07/28 02:30:39;;;;;;;7.03;6.30;;;;;;;22.62;58.06;100847.91;5096145;28;19912;-71
2021/07/28 02:33:04;;;;;;;7.90;7.15;;;;;;;22.52;57.87;100833.22;5114020;28;20164;-71
2021/07/28 02:35:29;;;;;;;7.85;6.57;;;;;;;22.58;58.01;100839.22;5114257;28;20038;-71
2021/07/28 02:37:55;;;;;;;9.55;6.70;;;;;;;22.58;58.11;100839.22;5095776;28;20031;-71
2021/07/28 02:40:21;;;;;;;7.00;6.28;;;;;;;22.58;58.03;100839.22;5079229;28;20482;-71
2021/07/28 02:42:47;;;;;;;7.75;6.95;;;;;;;22.60;58.09;100841.81;5096547;28;20023;-71
2021/07/28 02:45:13;;;;;;;7.65;6.63;;;;;;;22.60;58.13;100847.94;5080741;28;20031;-71
2021/07/28 02:47:39;;;;;;;7.50;6.80;;;;;;;22.60;57.98;100836.53;5096613;28;20148;-71
2021/07/28 02:50:05;;;;;;;8.63;5.80;;;;;;;22.60;58.25;100845.31;5063746;28;20051;-71
2021/07/28 02:52:31;;;;;;;7.03;5.45;;;;;;;22.58;58.17;100836.59;5113991;28;20024;-71
2021/07/28 02:54:57;;;;;;;8.38;6.72;;;;;;;22.57;57.84;100826.94;5095806;28;20020;-71
2021/07/28 02:57:22;;;;;;;6.85;5.70;;;;;;;22.58;57.93;100825.19;5078933;28;20092;-71
2021/07/28 02:59:47;;;;;;;6.80;5.63;;;;;;;22.57;57.87;100831.34;5113883;28;20045;-71
2021/07/28 03:02:13;;;;;;;6.90;5.80;;;;;;;22.58;57.94;100831.31;5095723;28;20032;-71
2021/07/28 03:04:38;;;;;;;7.57;6.85;;;;;;;22.57;58.00;100832.22;5095837;28;19912;-71
2021/07/28 03:07:04;;;;;;;7.70;6.80;;;;;;;22.59;57.92;100840.94;5078782;28;20371;-71
2021/07/28 03:09:32;;;;;;;7.07;5.65;;;;;;;22.59;57.96;100835.66;5095840;28;20066;-71
2021/07/28 03:11:57;;;;;;;7.07;6.15;;;;;;;22.57;57.96;100834.00;5117957;28;20549;-71
2021/07/28 03:14:23;;;;;;;7.32;6.03;;;;;;;22.59;58.02;100843.56;5099902;28;20110;-71
2021/07/28 03:16:48;;;;;;;6.88;6.03;;;;;;;22.56;57.89;100838.38;5117956;28;20107;-71
2021/07/28 03:19:13;;;;;;;6.10;5.50;;;;;;;22.57;57.90;100841.91;5099477;28;20032;-71
2021/07/28 03:21:39;;;;;;;8.23;6.35;;;;;;;22.55;57.96;100841.94;5099592;28;20362;-71
2021/07/28 03:24:04;;;;;;;9.15;6.82;;;;;;;22.59;57.77;100845.38;5099321;28;20125;-71
2021/07/28 03:26:30;;;;;;;10.35;5.90;;;;;;;22.59;57.96;100842.72;5082468;28;20028;-71
2021/07/28 03:28:56;;;;;;;6.85;6.15;;;;;;;22.58;57.78;100843.63;5117516;28;20023;-71
2021/07/28 03:31:21;;;;;;;7.05;5.40;;;;;;;22.53;57.88;100825.28;5099432;28;20043;-71
2021/07/28 03:33:46;;;;;;;7.65;5.95;;;;;;;22.57;57.91;100837.50;5099472;28;20073;-70
2021/07/28 03:36:12;;;;;;;7.78;6.43;;;;;;;22.55;58.04;100826.09;5082286;28;20039;-71
2021/07/28 03:38:37;;;;;;;7.45;6.65;;;;;;;22.57;58.00;100832.22;5099550;28;20016;-71
2021/07/28 03:41:02;;;;;;;6.15;5.57;;;;;;;22.55;57.92;100839.28;5099173;28;20477;-71
2021/07/28 03:43:28;;;;;;;9.00;6.72;;;;;;;22.58;58.07;100835.72;5099181;28;20435;-71
2021/07/28 03:45:54;;;;;;;7.65;6.93;;;;;;;22.57;57.93;100831.34;5082235;28;20473;-71
2021/07/28 03:48:19;;;;;;;;;;;;;;;22.58;57.96;100838.38;5098943;28;20467;-71
2021/07/28 03:50:44;;;;;;;7.55;6.72;;;;;;;22.57;57.99;100831.34;5117236;28;19973;-72
2021/07/28 03:53:10;;;;;;;6.85;6.03;;;;;;;22.57;58.00;100834.00;5099113;28;20031;-71
2021/07/28 03:55:35;;;;;;;8.57;6.38;;;;;;;22.56;57.93;100832.25;5099103;28;20087;-71
2021/07/28 03:58:00;;;;;;;6.63;5.93;;;;;;;22.56;57.96;100825.22;5081763;28;20027;-71
2021/07/28 04:00:26;;;;;;;6.72;5.78;;;;;;;22.56;57.93;100830.47;5098926;28;20496;-71
2021/07/28 04:02:51;;;;;;;6.57;5.93;;;;;;;22.57;57.87;100824.31;5098899;28;20110;-71
2021/07/28 04:05:17;;;;;;;7.95;6.65;;;;;;;22.54;57.82;100818.22;5117195;28;20031;-71
2021/07/28 04:07:42;;;;;;;7.38;6.38;;;;;;;22.57;58.03;100820.81;5098875;28;20024;-72
2021/07/28 04:10:10;;;;;;;7.25;5.75;;;;;;;22.55;57.89;100819.97;5098631;28;20112;-71
2021/07/28 04:12:36;;;;;;;8.15;6.53;;;;;;;22.54;57.61;100810.31;5117118;28;20036;-71
2021/07/28 04:15:02;;;;;;;7.22;6.28;;;;;;;22.54;57.87;100816.47;5081936;28;20030;-71
2021/07/28 04:17:27;;;;;;;8.50;6.77;;;;;;;22.54;58.03;100808.56;5098545;28;20036;-71
2021/07/28 04:19:52;;;;;;;7.20;6.50;;;;;;;22.56;58.04;100816.44;5098544;28;20050;-71
2021/07/28 04:22:19;;;;;;;7.32;6.25;;;;;;;22.57;57.91;100819.03;5097921;28;20107;-71
2021/07/28 04:24:46;;;;;;;7.20;5.80;;;;;;;22.54;57.97;100811.19;5116597;28;20470;-71
2021/07/28 04:27:11;;;;;;;7.38;6.68;;;;;;;22.58;58.02;100812.00;5098522;28;20085;-71
2021/07/28 04:29:37;;;;;;;8.05;6.40;;;;;;;22.56;57.93;100805.91;5098639;28;20404;-71
2021/07/28 04:32:02;;;;;;;6.65;5.65;;;;;;;22.58;57.98;100812.88;5116963;28;20039;-71
2021/07/28 04:34:28;;;;;;;9.23;6.50;;;;;;;22.55;57.99;100802.41;5081637;28;20036;-71
2021/07/28 04:36:53;;;;;;;6.63;5.80;;;;;;;22.59;58.16;100813.75;5098325;28;20035;-71
2021/07/28 04:39:18;;;;;;;6.93;6.22;;;;;;;22.58;58.10;100812.88;5098181;28;20062;-71
2021/07/28 04:41:44;;;;;;;8.57;7.18;;;;;;;22.59;58.04;100814.56;5081311;28;20041;-71
2021/07/28 04:44:09;;;;;;;7.82;7.00;;;;;;;22.58;58.10;100814.63;5116176;28;20031;-71
2021/07/28 04:46:34;;;;;;;7.30;6.45;;;;;;;22.59;57.96;100813.75;5098315;28;20106;-71
2021/07/28 04:49:00;;;;;;;7.88;6.78;;;;;;;22.55;58.14;100805.03;5080582;28;20082;-71
2021/07/28 04:51:26;;;;;;;6.85;6.10;;;;;;;22.58;58.31;100814.63;5080981;28;20038;-71
2021/07/28 04:53:52;;;;;;;7.28;6.53;;;;;;;22.59;58.23;100819.00;5081332;28;20032;-71
2021/07/28 04:56:17;;;;;;;7.68;6.47;;;;;;;22.59;58.13;100817.22;5115781;28;20042;-71
2021/07/28 04:58:43;;;;;;;9.25;8.20;;;;;;;22.60;57.97;100812.81;5115792;28;20020;-71
2021/07/28 05:01:08;;;;;;;7.70;6.57;;;;;;;22.59;58.23;100811.09;5115959;28;20042;-71
2021/07/28 05:03:33;;;;;;;7.00;6.10;;;;;;;22.58;57.91;100807.59;5097584;28;20039;-72
2021/07/28 05:05:59;;;;;;;8.85;7.93;;;;;;;22.60;58.00;100807.53;5097377;28;20030;-71
2021/07/28 05:08:24;;;;;;;7.43;6.63;;;;;;;22.60;58.02;100803.13;5080386;28;20477;-71
2021/07/28 05:10:50;;;;;;;6.40;5.50;;;;;;;22.63;58.05;100807.47;5097456;28;20427;-71
2021/07/28 05:13:16;;;;;;;7.18;6.45;;;;;;;22.63;58.18;100807.47;5097401;28;20011;-71
2021/07/28 05:15:41;;;;;;;7.53;6.43;;;;;;;22.53;58.18;100791.00;5115364;28;20055;-71
2021/07/28 05:18:06;;;;;;;8.25;7.22;;;;;;;22.62;58.05;100806.59;5115358;28;20456;-71
2021/07/28 05:20:32;;;;;;;12.30;6.60;;;;;;;22.60;58.16;100808.41;5097076;28;20039;-71
2021/07/28 05:22:57;;;;;;;;;;;;;;;22.59;58.01;100808.47;5115601;28;20035;-71
2021/07/28 05:25:22;;;;;;;12.55;11.10;;;;;;;22.54;57.69;100805.06;5115328;28;20014;-71
2021/07/28 05:27:48;;;;;;;13.07;9.60;;;;;;;22.55;57.59;100804.16;5096880;28;20275;-71
2021/07/28 05:30:14;;;;;;;13.10;9.85;;;;;;;22.49;57.47;100797.25;5080236;28;20492;-72
2021/07/28 05:32:40;;;;;;;13.25;10.85;;;;;;;22.43;57.10;100800.91;5096299;28;19919;-72
2021/07/28 05:35:05;;;;;;;12.80;10.85;;;;;;;22.40;57.58;100805.34;5097172;28;20039;-71
2021/07/28 05:37:31;;;;;;;11.80;10.60;;;;;;;22.36;57.33;100801.91;5096643;28;20031;-71
2021/07/28 05:39:56;;;;;;;16.48;12.05;;;;;;;22.25;57.58;100797.78;5115002;28;20038;-71
2021/07/28 05:42:21;;;;;;;12.48;11.02;;;;;;;22.23;57.64;100808.34;5063175;28;20065;-71
2021/07/28 05:44:47;;;;;;;14.00;12.13;;;;;;;22.14;57.73;100800.66;5096638;28;20055;-71
2021/07/28 05:47:12;;;;;;;12.48;10.93;;;;;;;22.21;57.79;100806.63;5079565;28;20032;-71
2021/07/28 05:49:38;;;;;;;11.95;10.75;;;;;;;22.18;57.63;100807.59;5114641;28;20118;-71
2021/07/28 05:52:04;;;;;;;14.20;10.98;;;;;;;22.15;57.86;100812.03;5114868;28;20024;-72
2021/07/28 05:54:29;;;;;;;13.07;10.00;;;;;;;22.12;57.47;100796.31;5096616;28;20471;-71
2021/07/28 05:56:54;;;;;;;13.90;10.20;;;;;;;22.06;58.08;100803.44;5114819;28;20035;-71
2021/07/28 05:59:21;;;;;;;12.00;10.63;;;;;;;22.12;57.97;100807.69;5079774;28;20116;-71
2021/07/28 06:01:46;;;;;;;12.50;10.20;;;;;;;22.07;58.24;100799.88;5114874;28;20457;-71
2021/07/28 06:04:12;;;;;;;16.70;11.75;;;;;;;22.10;58.42;100813.00;5096558;28;20035;-72
2021/07/28 06:06:37;;;;;;;12.32;10.98;;;;;;;22.06;58.40;100803.44;5096621;28;20036;-72
2021/07/28 06:09:03;;;;;;;17.13;12.13;;;;;;;22.09;58.46;100811.25;5096604;28;20032;-72
2021/07/28 06:11:28;;;;;;;12.18;10.00;;;;;;;22.07;58.61;100806.94;5096355;28;20023;-72
2021/07/28 06:13:54;;;;;;;12.18;10.75;;;;;;;21.97;58.57;100803.56;5114498;28;20466;-71
2021/07/28 06:16:19;;;;;;;12.00;9.60;;;;;;;21.95;58.55;100801.88;5063380;28;20054;-72
2021/07/28 06:18:44;;;;;;;;;;;;;;;22.01;58.31;100793.88;5114725;28;20426;-71
2021/07/28 06:21:10;;;;;;;;;;;;;;;22.03;58.50;100794.72;5096372;28;19957;-71
2021/07/28 06:23:35;;;;;;;;;;;;;;;22.08;58.19;100800.75;5096102;28;19912;-71
2021/07/28 06:26:00;;;;;;;9.55;8.40;;;;;;;22.09;57.91;100794.59;5096017;28;19912;-71
2021/07/28 06:28:26;;;;;;;12.23;7.93;;;;;;;22.10;58.26;100796.31;5079099;28;20035;-71
2021/07/28 06:30:52;;;;;;;8.73;7.72;;;;;;;22.09;57.92;100802.50;5095972;28;20192;-71
2021/07/28 06:33:19;;;;;;;7.70;6.45;;;;;;;22.05;57.89;100795.56;5114255;28;20031;-71
2021/07/28 06:35:44;;;;;;;;;;;;;;;22.13;57.64;100804.19;5079595;28;20055;-71
2021/07/28 06:38:10;;;;;;;;;;;;;;;22.12;57.63;100802.44;5096556;28;19912;-71
2021/07/28 06:40:35;;;;;;;14.02;7.47;;;;;;;22.11;57.85;100800.69;5114172;28;19972;-72
2021/07/28 06:43:00;;;;;;;;;;;;;;;22.07;57.41;100796.41;5114551;28;19994;-71
2021/07/28 06:45:26;;;;;;;8.80;6.55;;;;;;;22.00;57.58;100800.06;5095912;28;19912;-72
2021/07/28 06:47:51;;;;;;;11.95;7.60;;;;;;;22.00;57.41;100803.56;5078576;28;20051;-72
2021/07/28 06:50:19;;;;;;;11.52;8.35;;;;;;;21.98;57.44;100807.06;5113964;28;20335;-72
2021/07/28 06:52:45;;;;;;;9.02;6.90;;;;;;;21.90;57.54;100804.59;5114058;28;20015;-72
2021/07/28 06:55:10;;;;;;;;;;;;;;;21.85;57.79;100808.22;5095855;28;20106;-73
2021/07/28 06:57:36;;;;;;;13.70;7.20;;;;;;;21.85;57.64;100808.22;5114394;28;19918;-73
2021/07/28 07:00:04;;;;;;;9.13;6.77;;;;;;;21.85;57.64;100808.22;5114555;28;20031;-72
2021/07/28 07:02:29;;;;;;;;;;;;;;;21.83;57.61;100807.38;5095812;28;20370;-72
2021/07/28 07:04:54;;;;;;;8.35;6.68;;;;;;;21.73;57.46;100798.78;5078763;28;19919;-72
2021/07/28 07:07:20;;;;;;;10.27;7.13;;;;;;;21.73;57.60;100798.78;5113681;28;20031;-73
2021/07/28 07:09:45;;;;;;;10.20;7.50;;;;;;;21.70;57.91;100802.34;5095782;28;20110;-73
2021/07/28 07:12:11;;;;;;;9.55;7.40;;;;;;;21.56;58.21;100795.59;5098213;28;19916;-74
2021/07/28 07:14:36;;;;;;;8.43;7.53;;;;;;;21.58;58.17;100804.34;5085090;28;20024;-73
2021/07/28 07:17:03;;;;;;;8.65;7.65;;;;;;;21.60;58.36;100800.78;5099789;28;20055;-73
2021/07/28 07:19:29;;;;;;;10.02;7.72;;;;;;;21.60;58.19;100795.53;5082743;28;20095;-73
2021/07/28 07:21:57;;;;;;;9.10;7.40;;;;;;;21.61;58.25;100799.03;5082926;28;20078;-73
2021/07/28 07:24:23;;;;;;;13.55;7.60;;;;;;;21.69;58.19;100794.47;5081594;28;20504;-72
2021/07/28 07:26:48;;;;;;;14.20;8.43;;;;;;;21.66;58.10;100792.78;5081524;28;20034;-72
2021/07/28 07:29:13;;;;;;;11.80;7.13;;;;;;;21.62;58.22;100782.34;5113702;28;20106;-72
2021/07/28 07:31:40;;;;;;;9.55;7.13;;;;;;;21.69;58.24;100795.34;5096261;28;20035;-72
2021/07/28 07:34:06;;;;;;;9.85;7.47;;;;;;;21.73;58.31;100798.78;5097684;28;20090;-73
2021/07/28 07:36:34;;;;;;;8.88;7.95;;;;;;;21.53;58.54;100770.25;5097292;28;20059;-73
2021/07/28 07:39:02;;;;;;;12.23;8.25;;;;;;;21.78;58.23;100791.69;5080339;28;20038;-73
2021/07/28 07:41:28;;;;;;;11.23;7.22;;;;;;;21.70;58.15;100790.94;5064609;28;20430;-72
2021/07/28 07:43:53;;;;;;;8.05;6.70;;;;;;;21.68;58.16;100795.41;5080570;28;20031;-72
2021/07/28 07:46:18;;;;;;;8.05;6.60;;;;;;;21.54;58.59;100789.53;5098247;28;20032;-72
2021/07/28 07:48:44;;;;;;;8.18;6.55;;;;;;;21.54;58.57;100787.75;5097094;28;20044;-72
2021/07/28 07:51:09;;;;;;;9.88;7.07;;;;;;;21.51;58.66;100793.06;5078462;28;20031;-73
2021/07/28 07:53:34;;;;;;;12.77;7.70;;;;;;;21.49;58.89;100802.75;5097595;28;20099;-73
2021/07/28 07:56:02;;;;;;;10.35;7.38;;;;;;;21.48;58.96;100800.16;5099488;28;20180;-73
2021/07/28 07:58:28;;;;;;;13.85;7.15;;;;;;;21.52;58.85;100794.81;5102535;28;20505;-72
2021/07/28 08:00:53;;;;;;;8.18;7.32;;;;;;;21.55;58.79;100789.47;5084249;28;20032;-73
2021/07/28 08:03:18;;;;;;;9.18;7.15;;;;;;;21.57;58.84;100798.19;5100522;28;20080;-73
2021/07/28 08:05:44;;;;;;;11.57;7.65;;;;;;;21.62;58.54;100799.00;5110222;28;20031;-74
2021/07/28 08:08:09;;;;;;;8.85;8.00;;;;;;;21.72;58.97;100797.06;5106867;28;20043;-72
2021/07/28 08:10:35;;;;;;;8.90;7.65;;;;;;;21.92;58.36;100796.69;5099940;28;20027;-73
2021/07/28 08:13:00;;;;;;;11.10;8.80;;;;;;;22.03;57.92;100792.09;5082730;28;20127;-73
2021/07/28 08:15:25;;;;;;;10.20;7.63;;;;;;;22.07;57.75;100789.34;5082365;28;20038;-73
2021/07/28 08:17:51;;;;;;;8.45;7.57;;;;;;;22.13;57.57;100793.63;5098789;28;20034;-73
2021/07/28 08:20:16;;;;;;;12.27;8.15;;;;;;;22.20;57.61;100795.22;5098804;28;20050;-73
2021/07/28 08:22:42;;;;;;;8.25;7.45;;;;;;;22.24;57.57;100798.69;5081665;28;20473;-73
2021/07/28 08:25:08;;;;;;;10.27;8.55;;;;;;;22.25;57.63;100793.38;5116893;28;20442;-73
2021/07/28 08:27:33;;;;;;;15.60;7.65;;;;;;;22.28;57.52;100805.63;5098531;28;20026;-73
2021/07/28 08:29:58;;;;;;;7.93;6.95;;;;;;;22.26;57.57;100789.84;5098346;28;20036;-72
2021/07/28 08:32:24;;;;;;;8.30;7.25;;;;;;;22.28;57.53;100790.69;5098503;28;20084;-73
2021/07/28 08:34:49;;;;;;;8.10;7.13;;;;;;;22.33;57.42;100790.59;5116585;28;20031;-73
2021/07/28 08:37:18;;;;;;;8.70;7.80;;;;;;;22.31;57.39;100790.63;5081659;28;20477;-73
2021/07/28 08:39:44;;;;;;;8.38;6.65;;;;;;;22.36;57.69;100782.59;5098163;28;20054;-73
2021/07/28 08:42:09;;;;;;;9.43;7.80;;;;;;;22.42;57.31;100793.88;5116559;28;20027;-73
2021/07/28 08:44:37;;;;;;;10.65;8.25;;;;;;;22.42;57.43;100795.66;5081529;28;20027;-73
2021/07/28 08:47:03;;;;;;;8.93;7.33;;;;;;;22.42;57.49;100798.28;5098242;28;20494;-73
2021/07/28 08:49:29;;;;;;;8.15;7.35;;;;;;;22.44;57.55;100801.78;5116584;28;20124;-73
2021/07/28 08:51:55;;;;;;;8.00;7.20;;;;;;;22.41;57.63;100796.56;5098111;28;20558;-73
2021/07/28 08:54:21;;;;;;;8.60;7.80;;;;;;;22.43;57.56;100808.81;5116567;28;20020;-73
2021/07/28 08:56:47;;;;;;;10.10;8.00;;;;;;;22.38;57.83;100792.22;5098068;28;20028;-73
2021/07/28 08:59:32;;;;;;;8.38;7.57;;;;;;;22.43;57.80;100800.91;5081063;28;20051;-73
2021/07/28 09:01:59;;;;;;;7.93;6.63;;;;;;;22.39;57.62;100795.72;5116225;28;20027;-73
2021/07/28 09:04:26;;;;;;;9.07;8.18;;;;;;;22.44;57.58;100799.13;5097662;28;20092;-72
2021/07/28 09:06:52;;;;;;;8.60;7.80;;;;;;;22.43;57.75;100795.63;5081458;28;20118;-74
2021/07/28 09:09:17;;;;;;;10.30;9.30;;;;;;;22.42;57.80;100791.25;5098319;28;20040;-71
2021/07/28 09:11:56;;;;;;;;;;;;;;;22.46;57.78;100797.31;5116187;28;20077;-73
2021/07/28 09:14:25;;;;;;;9.48;8.57;;;;;;;22.46;57.65;100781.50;5098220;28;20010;-73
2021/07/28 09:16:51;;;;;;;8.90;8.02;;;;;;;22.46;57.45;100790.25;5118103;28;20484;-73
2021/07/28 09:19:40;;;;;;;9.10;8.20;;;;;;;22.46;57.70;100787.63;5118182;28;20024;-73
2021/07/28 09:22:06;;;;;;;;;;;;;;;22.49;57.54;100788.47;5099468;28;20046;-73
2021/07/28 09:24:32;;;;;;;;;;;;;;;22.49;57.57;100797.25;5099084;28;19919;-73
2021/07/28 09:26:57;;;;;;;8.80;7.90;;;;;;;22.51;57.58;100789.31;5082707;28;19912;-73
2021/07/28 09:29:25;;;;;;;8.93;8.00;;;;;;;22.48;57.69;100786.72;5098621;28;20032;-73
2021/07/28 09:31:53;;;;;;;8.00;7.18;;;;;;;22.50;57.58;100785.81;5098663;28;20063;-73
2021/07/28 09:34:20;;;;;;;9.05;7.70;;;;;;;22.52;57.60;100785.78;5098484;28;20030;-73
2021/07/28 09:36:47;;;;;;;8.15;7.35;;;;;;;22.52;57.57;100786.63;5097796;28;20031;-73
2021/07/28 09:39:46;;;;;;;8.57;7.78;;;;;;;22.53;57.61;100795.41;5115799;28;20532;-73
2021/07/28 09:42:11;;;;;;;;;;;;;;;22.53;57.68;100795.41;5079336;28;20036;-73
2021/07/28 09:44:37;;;;;;;;;;;;;;;22.53;57.68;100780.47;5116781;28;19956;-73
2021/07/28 09:47:42;;;;;;;8.65;7.75;;;;;;;22.49;57.70;100784.06;5099384;28;19920;-73
2021/07/28 09:50:07;;;;;;;;;;;;;;;22.55;57.61;100788.34;5090744;28;20452;-73
2021/07/28 09:52:34;;;;;;;9.83;7.97;;;;;;;22.54;57.67;100792.75;5099243;28;19911;-73
2021/07/28 09:55:21;;;;;;;8.13;7.32;;;;;;;22.56;57.73;100788.31;5083298;28;20269;-73
2021/07/28 09:57:51;;;;;;;;;;;;;;;22.55;57.73;100789.22;5100230;28;20063;-73
2021/07/28 10:00:16;;;;;;;;;;;;;;;22.56;57.87;100787.44;5119263;28;19919;-73
2021/07/28 10:02:43;;;;;;;;;;;;;;;22.56;57.78;100780.41;5083539;28;19934;-73
2021/07/28 10:05:09;;;;;;;;;;;;;;;22.57;57.85;100786.56;5118274;28;19908;-73
2021/07/28 10:07:36;;;;;;;;;;;;;;;22.55;57.94;100788.34;5098893;28;20254;-74
2021/07/28 10:10:08;;;;;;;;;;;;;;;22.58;57.96;100786.50;5098662;28;19922;-73
2021/07/28 10:12:34;;;;;;;;;;;;;;;22.62;58.13;100793.44;5116150;28;20363;-72
2021/07/28 10:15:00;;;;;;;8.85;7.95;;;;;;;22.66;58.06;100775.78;5116376;28;19907;-72
2021/07/28 10:17:26;;;;;;;7.80;6.30;;;;;;;22.69;58.02;100776.59;5116330;28;20106;-72
2021/07/28 10:19:52;;;;;;;8.30;6.15;;;;;;;22.69;58.14;100771.31;5097152;28;20537;-72
2021/07/28 10:22:19;;;;;;;10.23;6.57;;;;;;;22.71;57.92;100781.81;5097297;28;20393;-73
2021/07/28 10:24:45;;;;;;;6.82;6.15;;;;;;;22.75;58.18;100789.59;5098105;28;20032;-73
2021/07/28 10:27:11;;;;;;;10.18;6.75;;;;;;;22.73;57.97;100787.91;5116365;28;20115;-72
2021/07/28 10:29:37;;;;;;;11.20;8.60;;;;;;;22.74;58.45;100779.09;5097402;28;20098;-72
2021/07/28 10:32:03;;;;;;;8.15;7.20;;;;;;;22.74;58.56;100782.59;5081451;28;19989;-72
2021/07/28 10:34:33;;;;;;;10.00;8.70;;;;;;;22.71;58.58;100787.09;5098005;28;20031;-73
2021/07/28 10:37:07;;;;;;;7.95;7.15;;;;;;;22.72;58.61;100784.41;5097444;28;20052;-72
2021/07/28 10:39:36;;;;;;;9.70;8.57;;;;;;;22.76;58.82;100787.88;5096974;28;20050;-72
2021/07/28 10:42:30;;;;;;;9.02;8.20;;;;;;;22.73;59.23;100786.13;5096316;28;20136;-71
2021/07/28 10:45:02;;;;;;;6.75;6.13;;;;;;;22.76;59.25;100788.75;5096015;28;20031;-71
2021/07/28 10:47:35;;;;;;;12.80;7.50;;;;;;;22.71;59.22;100790.59;5114383;28;20023;-72
2021/07/28 10:50:01;;;;;;;11.23;6.60;;;;;;;22.60;58.48;100782.06;5114480;28;19927;-72
2021/07/28 10:52:47;;;;;;;9.05;6.25;;;;;;;22.46;58.50;100782.34;5080160;28;20499;-73
2021/07/28 10:55:20;;;;;;;10.67;8.50;;;;;;;22.37;58.78;100794.88;5115245;28;19969;-73
2021/07/28 10:57:51;;;;;;;;;;;;;;;22.33;59.09;100793.22;5098809;28;20122;-73
2021/07/28 11:00:35;;;;;;;12.40;6.55;;;;;;;22.29;59.06;100802.09;5115348;28;20358;-74
2021/07/28 11:03:00;;;;;;;15.15;6.25;;;;;;;22.32;59.32;100802.03;5097151;28;20502;-73
2021/07/28 11:05:31;;;;;;;13.70;7.85;;;;;;;22.36;59.43;100798.41;5097035;28;20137;-73
2021/07/28 11:08:02;;;;;;;8.65;5.30;;;;;;;22.46;59.21;100806.06;5115882;28;20028;-73
2021/07/28 11:10:50;;;;;;;10.07;5.63;;;;;;;22.49;59.11;100802.50;5097361;28;20477;-73
2021/07/28 11:13:18;;;;;;;11.27;7.55;;;;;;;22.52;58.97;100801.59;5115432;28;20035;-72
2021/07/28 11:16:02;;;;;;;6.82;5.88;;;;;;;22.50;59.15;100812.16;5097394;28;20016;-73
2021/07/28 11:18:41;;;;;;;;;;;;;;;22.55;59.07;100819.97;5096725;28;20030;-72
2021/07/28 11:21:14;;;;;;;11.45;6.43;;;;;;;22.55;59.13;100815.56;5114058;28;19994;-71
2021/07/28 11:23:45;;;;;;;9.02;5.53;;;;;;;22.51;59.19;100807.75;5095852;28;20028;-72
2021/07/28 11:26:13;;;;;;;7.03;6.35;;;;;;;22.56;59.09;100816.44;5114174;28;20059;-72
2021/07/28 11:28:39;;;;;;;7.78;5.90;;;;;;;22.55;59.07;100810.28;5095930;28;20118;-71
2021/07/28 11:31:05;;;;;;;10.73;6.55;;;;;;;22.53;58.91;100809.47;5116110;28;20055;-71
2021/07/28 11:33:32;;;;;;;6.70;5.95;;;;;;;22.52;59.30;100815.63;5100394;28;20447;-72
2021/07/28 11:35:58;;;;;;;8.00;6.22;;;;;;;22.56;59.20;100841.03;5119093;28;20024;-71